sensor_id;sensor_type;location;lat;lon;timestamp;P1;durP1;ratioP1;P2;durP2;ratioP2
36391;SDS011;22639;42.690;23.356;2022-12-08T00:02:09;32.93;;;17.80;;
36391;SDS011;22639;42.690;23.356;2022-12-08T00:04:35;37.13;;;21.80;;
36391;SDS011;22639;42.690;23.356;2022-12-08T00:07:20;31.63;;;18.50;;
36391;SDS011;22639;42.690;23.356;2022-12-08T00:10:04;31.03;;;17.20;;
36391;SDS011;22639;42.690;23.356;2022-12-08T00:12:30;23.77;;;15.17;;
36391;SDS011;22639;42.690;23.356;2022-12-08T00:14:55;30.70;;;15.63;;
36391;SDS011;22639;42.690;23.356;2022-12-08T00:17:20;34.63;;;16.60;;
36391;SDS011;22639;42.690;23.356;2022-12-08T00:19:45;28.37;;;16.73;;
36391;SDS011;22639;42.690;23.356;2022-12-08T00:22:11;31.87;;;18.47;;
36391;SDS011;22639;42.690;23.356;2022-12-08T00:24:37;29.73;;;19.83;;
36391;SDS011;22639;42.690;23.356;2022-12-08T00:27:03;31.93;;;16.43;;
36391;SDS011;22639;42.690;23.356;2022-12-08T00:29:29;25.90;;;15.30;;
36391;SDS011;22639;42.690;23.356;2022-12-08T00:31:54;33.10;;;17.03;;
36391;SDS011;22639;42.690;23.356;2022-12-08T00:34:19;25.97;;;16.80;;
36391;SDS011;22639;42.690;23.356;2022-12-08T00:36:45;32.20;;;16.17;;
36391;SDS011;22639;42.690;23.356;2022-12-08T00:39:10;32.73;;;17.57;;
36391;SDS011;22639;42.690;23.356;2022-12-08T00:41:36;28.33;;;17.27;;
36391;SDS011;22639;42.690;23.356;2022-12-08T00:44:20;23.70;;;14.77;;
36391;SDS011;22639;42.690;23.356;2022-12-08T00:46:45;28.97;;;15.57;;
36391;SDS011;22639;42.690;23.356;2022-12-08T00:49:11;33.23;;;17.77;;
36391;SDS011;22639;42.690;23.356;2022-12-08T00:51:37;26.93;;;14.97;;
36391;SDS011;22639;42.690;23.356;2022-12-08T00:54:02;42.30;;;25.90;;
36391;SDS011;22639;42.690;23.356;2022-12-08T00:56:28;26.70;;;16.20;;
36391;SDS011;22639;42.690;23.356;2022-12-08T00:58:53;28.50;;;15.97;;
36391;SDS011;22639;42.690;23.356;2022-12-08T01:01:18;26.70;;;15.23;;
36391;SDS011;22639;42.690;23.356;2022-12-08T01:03:44;23.27;;;13.93;;
36391;SDS011;22639;42.690;23.356;2022-12-08T01:06:09;31.33;;;16.00;;
36391;SDS011;22639;42.690;23.356;2022-12-08T01:08:35;30.00;;;15.13;;
36391;SDS011;22639;42.690;23.356;2022-12-08T01:11:03;29.30;;;14.87;;
36391;SDS011;22639;42.690;23.356;2022-12-08T01:13:29;27.53;;;15.27;;
36391;SDS011;22639;42.690;23.356;2022-12-08T01:15:54;26.80;;;13.80;;
36391;SDS011;22639;42.690;23.356;2022-12-08T01:18:19;32.30;;;15.80;;
36391;SDS011;22639;42.690;23.356;2022-12-08T01:20:44;28.03;;;16.70;;
36391;SDS011;22639;42.690;23.356;2022-12-08T01:23:10;27.77;;;15.93;;
36391;SDS011;22639;42.690;23.356;2022-12-08T01:25:35;32.80;;;14.87;;
36391;SDS011;22639;42.690;23.356;2022-12-08T01:28:00;28.13;;;14.13;;
36391;SDS011;22639;42.690;23.356;2022-12-08T01:30:26;31.47;;;15.43;;
36391;SDS011;22639;42.690;23.356;2022-12-08T01:32:51;32.10;;;16.97;;
36391;SDS011;22639;42.690;23.356;2022-12-08T01:35:16;30.50;;;15.70;;
36391;SDS011;22639;42.690;23.356;2022-12-08T01:37:41;26.83;;;15.43;;
36391;SDS011;22639;42.690;23.356;2022-12-08T01:40:07;25.77;;;14.57;;
36391;SDS011;22639;42.690;23.356;2022-12-08T01:42:32;29.03;;;16.63;;
36391;SDS011;22639;42.690;23.356;2022-12-08T01:45:02;27.07;;;15.33;;
36391;SDS011;22639;42.690;23.356;2022-12-08T01:47:29;33.43;;;15.93;;
36391;SDS011;22639;42.690;23.356;2022-12-08T01:49:56;27.80;;;16.27;;
36391;SDS011;22639;42.690;23.356;2022-12-08T01:52:23;33.50;;;17.03;;
36391;SDS011;22639;42.690;23.356;2022-12-08T01:54:56;33.30;;;17.83;;
36391;SDS011;22639;42.690;23.356;2022-12-08T01:57:24;35.47;;;17.43;;
36391;SDS011;22639;42.690;23.356;2022-12-08T01:59:53;28.67;;;18.27;;
36391;SDS011;22639;42.690;23.356;2022-12-08T02:02:19;32.63;;;18.97;;
36391;SDS011;22639;42.690;23.356;2022-12-08T02:04:44;32.50;;;17.93;;
36391;SDS011;22639;42.690;23.356;2022-12-08T02:07:09;34.13;;;18.13;;
36391;SDS011;22639;42.690;23.356;2022-12-08T02:09:36;28.90;;;18.10;;
36391;SDS011;22639;42.690;23.356;2022-12-08T02:12:02;38.37;;;20.40;;
36391;SDS011;22639;42.690;23.356;2022-12-08T02:14:28;34.67;;;19.23;;
36391;SDS011;22639;42.690;23.356;2022-12-08T02:24:33;32.33;;;20.10;;
36391;SDS011;22639;42.690;23.356;2022-12-08T02:27:13;27.67;;;17.70;;
36391;SDS011;22639;42.690;23.356;2022-12-08T02:37:29;31.50;;;16.53;;
36391;SDS011;22639;42.690;23.356;2022-12-08T02:42:29;32.90;;;18.27;;
36391;SDS011;22639;42.690;23.356;2022-12-08T02:44:59;29.57;;;16.70;;
36391;SDS011;22639;42.690;23.356;2022-12-08T02:47:25;29.87;;;17.50;;
36391;SDS011;22639;42.690;23.356;2022-12-08T02:49:51;33.27;;;19.47;;
36391;SDS011;22639;42.690;23.356;2022-12-08T02:54:48;28.90;;;16.57;;
36391;SDS011;22639;42.690;23.356;2022-12-08T03:07:57;26.30;;;16.70;;
36391;SDS011;22639;42.690;23.356;2022-12-08T03:10:26;32.80;;;18.57;;
36391;SDS011;22639;42.690;23.356;2022-12-08T03:13:01;37.27;;;18.63;;
36391;SDS011;22639;42.690;23.356;2022-12-08T03:15:28;31.03;;;17.43;;
36391;SDS011;22639;42.690;23.356;2022-12-08T03:17:55;32.20;;;17.93;;
36391;SDS011;22639;42.690;23.356;2022-12-08T03:20:22;24.33;;;16.97;;
36391;SDS011;22639;42.690;23.356;2022-12-08T03:22:48;27.07;;;17.53;;
36391;SDS011;22639;42.690;23.356;2022-12-08T03:25:14;25.20;;;15.97;;
36391;SDS011;22639;42.690;23.356;2022-12-08T03:27:41;29.53;;;15.83;;
36391;SDS011;22639;42.690;23.356;2022-12-08T03:30:06;26.57;;;16.20;;
36391;SDS011;22639;42.690;23.356;2022-12-08T03:32:54;27.10;;;17.13;;
36391;SDS011;22639;42.690;23.356;2022-12-08T03:35:27;28.07;;;16.93;;
36391;SDS011;22639;42.690;23.356;2022-12-08T03:38:04;27.10;;;16.90;;
36391;SDS011;22639;42.690;23.356;2022-12-08T03:40:35;27.90;;;16.50;;
36391;SDS011;22639;42.690;23.356;2022-12-08T03:43:01;30.23;;;17.90;;
36391;SDS011;22639;42.690;23.356;2022-12-08T03:45:27;28.87;;;17.87;;
36391;SDS011;22639;42.690;23.356;2022-12-08T03:47:56;32.77;;;18.67;;
36391;SDS011;22639;42.690;23.356;2022-12-08T03:50:22;32.90;;;18.57;;
36391;SDS011;22639;42.690;23.356;2022-12-08T03:52:47;36.20;;;20.03;;
36391;SDS011;22639;42.690;23.356;2022-12-08T03:55:13;31.90;;;18.80;;
36391;SDS011;22639;42.690;23.356;2022-12-08T03:57:38;38.27;;;20.47;;
36391;SDS011;22639;42.690;23.356;2022-12-08T04:00:04;35.30;;;18.47;;
36391;SDS011;22639;42.690;23.356;2022-12-08T04:02:30;33.00;;;19.97;;
36391;SDS011;22639;42.690;23.356;2022-12-08T04:04:58;40.73;;;23.87;;
36391;SDS011;22639;42.690;23.356;2022-12-08T04:07:23;33.90;;;20.53;;
36391;SDS011;22639;42.690;23.356;2022-12-08T04:09:49;35.17;;;21.53;;
36391;SDS011;22639;42.690;23.356;2022-12-08T04:12:15;33.23;;;20.13;;
36391;SDS011;22639;42.690;23.356;2022-12-08T04:14:41;39.40;;;20.47;;
36391;SDS011;22639;42.690;23.356;2022-12-08T04:17:06;36.23;;;20.30;;
36391;SDS011;22639;42.690;23.356;2022-12-08T04:19:31;29.40;;;19.37;;
36391;SDS011;22639;42.690;23.356;2022-12-08T04:21:56;32.20;;;20.40;;
36391;SDS011;22639;42.690;23.356;2022-12-08T04:24:22;36.37;;;22.07;;
36391;SDS011;22639;42.690;23.356;2022-12-08T04:26:47;31.97;;;20.60;;
36391;SDS011;22639;42.690;23.356;2022-12-08T04:29:14;36.27;;;20.80;;
36391;SDS011;22639;42.690;23.356;2022-12-08T04:31:39;37.43;;;23.57;;
36391;SDS011;22639;42.690;23.356;2022-12-08T04:34:04;57.43;;;32.57;;
36391;SDS011;22639;42.690;23.356;2022-12-08T04:36:29;45.83;;;27.00;;
36391;SDS011;22639;42.690;23.356;2022-12-08T04:38:55;40.80;;;25.40;;
36391;SDS011;22639;42.690;23.356;2022-12-08T04:41:21;43.50;;;24.97;;
36391;SDS011;22639;42.690;23.356;2022-12-08T04:43:46;35.23;;;24.13;;
36391;SDS011;22639;42.690;23.356;2022-12-08T04:46:11;42.70;;;26.00;;
36391;SDS011;22639;42.690;23.356;2022-12-08T04:48:37;46.13;;;27.13;;
36391;SDS011;22639;42.690;23.356;2022-12-08T04:51:03;45.87;;;26.97;;
36391;SDS011;22639;42.690;23.356;2022-12-08T04:53:28;57.07;;;35.17;;
36391;SDS011;22639;42.690;23.356;2022-12-08T04:55:53;109.07;;;72.40;;
36391;SDS011;22639;42.690;23.356;2022-12-08T04:58:19;83.57;;;56.37;;
36391;SDS011;22639;42.690;23.356;2022-12-08T05:00:44;78.70;;;52.10;;
36391;SDS011;22639;42.690;23.356;2022-12-08T05:03:10;61.77;;;39.23;;
36391;SDS011;22639;42.690;23.356;2022-12-08T05:05:36;51.97;;;33.07;;
36391;SDS011;22639;42.690;23.356;2022-12-08T05:08:01;59.43;;;35.43;;
36391;SDS011;22639;42.690;23.356;2022-12-08T05:10:27;51.97;;;31.47;;
36391;SDS011;22639;42.690;23.356;2022-12-08T05:12:53;54.77;;;31.97;;
36391;SDS011;22639;42.690;23.356;2022-12-08T05:15:18;46.97;;;29.63;;
36391;SDS011;22639;42.690;23.356;2022-12-08T05:17:43;49.07;;;28.93;;
36391;SDS011;22639;42.690;23.356;2022-12-08T05:20:09;51.70;;;32.40;;
36391;SDS011;22639;42.690;23.356;2022-12-08T05:22:34;63.63;;;39.47;;
36391;SDS011;22639;42.690;23.356;2022-12-08T05:24:59;57.67;;;33.60;;
36391;SDS011;22639;42.690;23.356;2022-12-08T05:27:25;43.83;;;26.73;;
36391;SDS011;22639;42.690;23.356;2022-12-08T05:29:50;47.07;;;26.27;;
36391;SDS011;22639;42.690;23.356;2022-12-08T05:32:15;39.70;;;25.17;;
36391;SDS011;22639;42.690;23.356;2022-12-08T05:34:41;41.53;;;25.87;;
36391;SDS011;22639;42.690;23.356;2022-12-08T05:37:06;44.60;;;25.90;;
36391;SDS011;22639;42.690;23.356;2022-12-08T05:39:31;43.73;;;23.97;;
36391;SDS011;22639;42.690;23.356;2022-12-08T05:41:57;44.77;;;25.37;;
36391;SDS011;22639;42.690;23.356;2022-12-08T05:44:23;38.10;;;25.30;;
36391;SDS011;22639;42.690;23.356;2022-12-08T05:46:49;45.67;;;25.10;;
36391;SDS011;22639;42.690;23.356;2022-12-08T05:49:14;42.00;;;21.40;;
36391;SDS011;22639;42.690;23.356;2022-12-08T05:51:39;40.27;;;23.10;;
36391;SDS011;22639;42.690;23.356;2022-12-08T05:54:04;44.20;;;24.00;;
36391;SDS011;22639;42.690;23.356;2022-12-08T05:56:30;39.80;;;21.70;;
36391;SDS011;22639;42.690;23.356;2022-12-08T05:58:55;39.90;;;22.77;;
36391;SDS011;22639;42.690;23.356;2022-12-08T06:01:21;40.07;;;22.30;;
36391;SDS011;22639;42.690;23.356;2022-12-08T06:03:47;36.43;;;20.60;;
36391;SDS011;22639;42.690;23.356;2022-12-08T06:06:12;46.23;;;21.70;;
36391;SDS011;22639;42.690;23.356;2022-12-08T06:08:38;40.40;;;23.23;;
36391;SDS011;22639;42.690;23.356;2022-12-08T06:11:03;50.60;;;25.60;;
36391;SDS011;22639;42.690;23.356;2022-12-08T06:13:28;44.07;;;25.27;;
36391;SDS011;22639;42.690;23.356;2022-12-08T06:15:53;39.73;;;24.03;;
36391;SDS011;22639;42.690;23.356;2022-12-08T06:18:18;44.03;;;25.43;;
36391;SDS011;22639;42.690;23.356;2022-12-08T06:20:44;35.63;;;23.93;;
36391;SDS011;22639;42.690;23.356;2022-12-08T06:23:09;42.27;;;27.33;;
36391;SDS011;22639;42.690;23.356;2022-12-08T06:25:34;49.53;;;27.27;;
36391;SDS011;22639;42.690;23.356;2022-12-08T06:27:59;41.30;;;25.43;;
36391;SDS011;22639;42.690;23.356;2022-12-08T06:30:25;41.97;;;26.47;;
36391;SDS011;22639;42.690;23.356;2022-12-08T06:32:52;43.13;;;27.07;;
36391;SDS011;22639;42.690;23.356;2022-12-08T06:35:17;45.97;;;26.80;;
36391;SDS011;22639;42.690;23.356;2022-12-08T06:37:42;46.23;;;28.63;;
36391;SDS011;22639;42.690;23.356;2022-12-08T06:40:08;52.13;;;29.73;;
36391;SDS011;22639;42.690;23.356;2022-12-08T06:42:33;52.77;;;33.60;;
36391;SDS011;22639;42.690;23.356;2022-12-08T06:45:07;57.53;;;30.73;;
36391;SDS011;22639;42.690;23.356;2022-12-08T06:47:33;41.87;;;26.10;;
36391;SDS011;22639;42.690;23.356;2022-12-08T06:49:58;49.40;;;31.97;;
36391;SDS011;22639;42.690;23.356;2022-12-08T06:52:24;44.33;;;27.87;;
36391;SDS011;22639;42.690;23.356;2022-12-08T06:54:49;33.70;;;21.93;;
36391;SDS011;22639;42.690;23.356;2022-12-08T06:57:14;33.00;;;21.80;;
36391;SDS011;22639;42.690;23.356;2022-12-08T06:59:40;29.70;;;18.67;;
36391;SDS011;22639;42.690;23.356;2022-12-08T07:02:06;30.50;;;19.13;;
36391;SDS011;22639;42.690;23.356;2022-12-08T07:04:32;29.50;;;18.80;;
36391;SDS011;22639;42.690;23.356;2022-12-08T07:06:57;30.20;;;18.10;;
36391;SDS011;22639;42.690;23.356;2022-12-08T07:09:22;28.10;;;19.58;;
36391;SDS011;22639;42.690;23.356;2022-12-08T07:11:50;28.83;;;21.33;;
36391;SDS011;22639;42.690;23.356;2022-12-08T07:14:18;29.93;;;21.00;;
36391;SDS011;22639;42.690;23.356;2022-12-08T07:16:47;33.90;;;22.50;;
36391;SDS011;22639;42.690;23.356;2022-12-08T07:19:13;31.37;;;22.50;;
36391;SDS011;22639;42.690;23.356;2022-12-08T07:21:38;36.47;;;23.67;;
36391;SDS011;22639;42.690;23.356;2022-12-08T07:24:03;33.67;;;22.77;;
36391;SDS011;22639;42.690;23.356;2022-12-08T07:26:29;34.93;;;23.73;;
36391;SDS011;22639;42.690;23.356;2022-12-08T07:28:54;36.73;;;25.23;;
36391;SDS011;22639;42.690;23.356;2022-12-08T07:31:21;37.30;;;26.20;;
36391;SDS011;22639;42.690;23.356;2022-12-08T07:33:47;41.37;;;29.10;;
36391;SDS011;22639;42.690;23.356;2022-12-08T07:36:14;45.20;;;31.00;;
36391;SDS011;22639;42.690;23.356;2022-12-08T07:38:39;46.90;;;30.83;;
36391;SDS011;22639;42.690;23.356;2022-12-08T07:41:04;84.00;;;46.43;;
36391;SDS011;22639;42.690;23.356;2022-12-08T07:43:29;79.20;;;45.20;;
36391;SDS011;22639;42.690;23.356;2022-12-08T07:45:55;77.03;;;41.30;;
36391;SDS011;22639;42.690;23.356;2022-12-08T07:48:20;65.07;;;38.73;;
36391;SDS011;22639;42.690;23.356;2022-12-08T07:50:45;67.57;;;35.97;;
36391;SDS011;22639;42.690;23.356;2022-12-08T07:53:11;63.03;;;38.23;;
36391;SDS011;22639;42.690;23.356;2022-12-08T07:55:40;67.60;;;34.27;;
36391;SDS011;22639;42.690;23.356;2022-12-08T07:58:05;64.43;;;33.73;;
36391;SDS011;22639;42.690;23.356;2022-12-08T08:00:30;62.87;;;36.83;;
36391;SDS011;22639;42.690;23.356;2022-12-08T08:02:56;54.53;;;33.30;;
36391;SDS011;22639;42.690;23.356;2022-12-08T08:05:21;52.17;;;32.37;;
36391;SDS011;22639;42.690;23.356;2022-12-08T08:07:46;47.90;;;31.23;;
36391;SDS011;22639;42.690;23.356;2022-12-08T08:10:12;53.67;;;33.80;;
36391;SDS011;22639;42.690;23.356;2022-12-08T08:12:37;64.57;;;42.87;;
36391;SDS011;22639;42.690;23.356;2022-12-08T08:15:05;70.10;;;43.30;;
36391;SDS011;22639;42.690;23.356;2022-12-08T08:17:31;57.77;;;37.20;;
36391;SDS011;22639;42.690;23.356;2022-12-08T08:19:56;47.63;;;30.03;;
36391;SDS011;22639;42.690;23.356;2022-12-08T08:22:23;45.73;;;27.53;;
36391;SDS011;22639;42.690;23.356;2022-12-08T08:24:48;45.10;;;28.80;;
36391;SDS011;22639;42.690;23.356;2022-12-08T08:27:13;44.87;;;26.47;;
36391;SDS011;22639;42.690;23.356;2022-12-08T08:29:39;33.30;;;22.67;;
36391;SDS011;22639;42.690;23.356;2022-12-08T08:32:05;44.03;;;27.13;;
36391;SDS011;22639;42.690;23.356;2022-12-08T08:34:31;39.10;;;25.77;;
36391;SDS011;22639;42.690;23.356;2022-12-08T08:36:56;35.87;;;24.13;;
36391;SDS011;22639;42.690;23.356;2022-12-08T08:39:21;36.33;;;24.13;;
36391;SDS011;22639;42.690;23.356;2022-12-08T08:41:47;33.97;;;21.97;;
36391;SDS011;22639;42.690;23.356;2022-12-08T08:44:12;37.07;;;21.87;;
36391;SDS011;22639;42.690;23.356;2022-12-08T08:46:38;28.53;;;17.17;;
36391;SDS011;22639;42.690;23.356;2022-12-08T08:49:04;28.70;;;18.03;;
36391;SDS011;22639;42.690;23.356;2022-12-08T08:51:29;31.43;;;20.93;;
36391;SDS011;22639;42.690;23.356;2022-12-08T08:53:54;32.80;;;23.47;;
36391;SDS011;22639;42.690;23.356;2022-12-08T08:56:19;43.33;;;27.27;;
36391;SDS011;22639;42.690;23.356;2022-12-08T08:58:48;39.50;;;23.47;;
36391;SDS011;22639;42.690;23.356;2022-12-08T09:01:14;39.38;;;26.55;;
36391;SDS011;22639;42.690;23.356;2022-12-08T09:03:39;29.90;;;20.88;;
36391;SDS011;22639;42.690;23.356;2022-12-08T09:06:05;35.33;;;21.05;;
36391;SDS011;22639;42.690;23.356;2022-12-08T09:08:30;29.17;;;20.77;;
36391;SDS011;22639;42.690;23.356;2022-12-08T09:10:56;29.88;;;19.67;;
36391;SDS011;22639;42.690;23.356;2022-12-08T09:13:21;27.73;;;19.27;;
36391;SDS011;22639;42.690;23.356;2022-12-08T09:15:46;24.63;;;19.00;;
36391;SDS011;22639;42.690;23.356;2022-12-08T09:18:12;24.55;;;16.10;;
36391;SDS011;22639;42.690;23.356;2022-12-08T09:20:37;24.65;;;16.60;;
36391;SDS011;22639;42.690;23.356;2022-12-08T09:23:02;27.70;;;18.40;;
36391;SDS011;22639;42.690;23.356;2022-12-08T09:25:27;26.30;;;19.48;;
36391;SDS011;22639;42.690;23.356;2022-12-08T09:27:53;46.17;;;26.92;;
36391;SDS011;22639;42.690;23.356;2022-12-08T09:30:18;41.55;;;27.98;;
36391;SDS011;22639;42.690;23.356;2022-12-08T09:32:43;32.72;;;21.45;;
36391;SDS011;22639;42.690;23.356;2022-12-08T09:35:09;33.05;;;22.33;;
36391;SDS011;22639;42.690;23.356;2022-12-08T09:37:34;28.55;;;18.42;;
36391;SDS011;22639;42.690;23.356;2022-12-08T09:39:59;35.85;;;25.95;;
36391;SDS011;22639;42.690;23.356;2022-12-08T09:43:00;40.63;;;30.23;;
36391;SDS011;22639;42.690;23.356;2022-12-08T09:45:16;47.57;;;32.50;;
36391;SDS011;22639;42.690;23.356;2022-12-08T09:47:43;55.08;;;36.53;;
36391;SDS011;22639;42.690;23.356;2022-12-08T09:50:55;59.97;;;40.70;;
36391;SDS011;22639;42.690;23.356;2022-12-08T09:55:42;62.87;;;38.57;;
36391;SDS011;22639;42.690;23.356;2022-12-08T09:58:12;55.07;;;36.60;;
36391;SDS011;22639;42.690;23.356;2022-12-08T10:00:39;49.60;;;32.90;;
36391;SDS011;22639;42.690;23.356;2022-12-08T10:03:06;47.70;;;31.87;;
36391;SDS011;22639;42.690;23.356;2022-12-08T10:05:34;42.10;;;28.03;;
36391;SDS011;22639;42.690;23.356;2022-12-08T10:08:04;37.53;;;23.10;;
36391;SDS011;22639;42.690;23.356;2022-12-08T10:10:40;40.37;;;26.07;;
36391;SDS011;22639;42.690;23.356;2022-12-08T10:15:55;29.88;;;19.02;;
36391;SDS011;22639;42.690;23.356;2022-12-08T10:18:24;31.40;;;18.43;;
36391;SDS011;22639;42.690;23.356;2022-12-08T10:20:51;28.80;;;19.17;;
36391;SDS011;22639;42.690;23.356;2022-12-08T10:25:45;24.90;;;18.38;;
36391;SDS011;22639;42.690;23.356;2022-12-08T10:28:11;28.80;;;17.52;;
36391;SDS011;22639;42.690;23.356;2022-12-08T10:30:37;26.48;;;18.00;;
36391;SDS011;22639;42.690;23.356;2022-12-08T10:33:03;27.70;;;18.02;;
36391;SDS011;22639;42.690;23.356;2022-12-08T10:35:45;26.60;;;17.17;;
36391;SDS011;22639;42.690;23.356;2022-12-08T10:38:15;25.25;;;18.77;;
36391;SDS011;22639;42.690;23.356;2022-12-08T10:40:41;22.52;;;15.32;;
36391;SDS011;22639;42.690;23.356;2022-12-08T10:43:11;24.58;;;17.17;;
36391;SDS011;22639;42.690;23.356;2022-12-08T10:45:38;24.08;;;14.38;;
36391;SDS011;22639;42.690;23.356;2022-12-08T10:48:27;22.80;;;14.77;;
36391;SDS011;22639;42.690;23.356;2022-12-08T10:53:20;21.30;;;12.90;;
36391;SDS011;22639;42.690;23.356;2022-12-08T10:55:47;20.40;;;12.07;;
36391;SDS011;22639;42.690;23.356;2022-12-08T10:58:27;19.23;;;12.97;;
36391;SDS011;22639;42.690;23.356;2022-12-08T11:00:53;21.77;;;11.53;;
36391;SDS011;22639;42.690;23.356;2022-12-08T11:03:21;16.63;;;10.87;;
36391;SDS011;22639;42.690;23.356;2022-12-08T11:05:47;19.87;;;12.30;;
36391;SDS011;22639;42.690;23.356;2022-12-08T11:08:13;20.17;;;11.53;;
36391;SDS011;22639;42.690;23.356;2022-12-08T11:10:42;19.37;;;11.70;;
36391;SDS011;22639;42.690;23.356;2022-12-08T11:13:12;18.23;;;12.23;;
36391;SDS011;22639;42.690;23.356;2022-12-08T11:15:40;14.50;;;10.77;;
36391;SDS011;22639;42.690;23.356;2022-12-08T11:18:06;21.83;;;11.43;;
36391;SDS011;22639;42.690;23.356;2022-12-08T11:20:39;19.83;;;12.55;;
36391;SDS011;22639;42.690;23.356;2022-12-08T11:23:17;19.90;;;12.77;;
36391;SDS011;22639;42.690;23.356;2022-12-08T11:25:42;22.23;;;13.77;;
36391;SDS011;22639;42.690;23.356;2022-12-08T11:28:08;21.33;;;11.60;;
36391;SDS011;22639;42.690;23.356;2022-12-08T11:30:35;19.33;;;12.27;;
36391;SDS011;22639;42.690;23.356;2022-12-08T11:33:10;21.03;;;12.07;;
36391;SDS011;22639;42.690;23.356;2022-12-08T11:35:39;23.37;;;13.27;;
36391;SDS011;22639;42.690;23.356;2022-12-08T11:38:21;23.13;;;13.10;;
36391;SDS011;22639;42.690;23.356;2022-12-08T11:41:30;21.88;;;14.07;;
36391;SDS011;22639;42.690;23.356;2022-12-08T11:46:19;21.43;;;12.47;;
36391;SDS011;22639;42.690;23.356;2022-12-08T11:56:18;13.10;;;9.67;;
36391;SDS011;22639;42.690;23.356;2022-12-08T11:58:45;15.40;;;10.10;;
36391;SDS011;22639;42.690;23.356;2022-12-08T12:01:21;17.20;;;11.53;;
36391;SDS011;22639;42.690;23.356;2022-12-08T12:03:48;16.05;;;9.05;;
36391;SDS011;22639;42.690;23.356;2022-12-08T12:06:21;17.87;;;11.47;;
36391;SDS011;22639;42.690;23.356;2022-12-08T12:17:01;11.73;;;8.35;;
36391;SDS011;22639;42.690;23.356;2022-12-08T12:19:32;13.60;;;7.53;;
36391;SDS011;22639;42.690;23.356;2022-12-08T12:22:03;11.85;;;8.75;;
36391;SDS011;22639;42.690;23.356;2022-12-08T12:24:31;10.10;;;7.88;;
36391;SDS011;22639;42.690;23.356;2022-12-08T12:27:00;11.27;;;7.50;;
36391;SDS011;22639;42.690;23.356;2022-12-08T12:29:29;11.93;;;7.88;;
36391;SDS011;22639;42.690;23.356;2022-12-08T12:31:57;12.40;;;8.90;;
36391;SDS011;22639;42.690;23.356;2022-12-08T12:34:24;15.98;;;8.68;;
36391;SDS011;22639;42.690;23.356;2022-12-08T12:36:57;10.77;;;7.47;;
36391;SDS011;22639;42.690;23.356;2022-12-08T12:39:28;11.18;;;7.70;;
36391;SDS011;22639;42.690;23.356;2022-12-08T12:41:55;15.63;;;8.75;;
36391;SDS011;22639;42.690;23.356;2022-12-08T12:51:57;12.73;;;9.23;;
36391;SDS011;22639;42.690;23.356;2022-12-08T12:54:23;11.52;;;8.70;;
36391;SDS011;22639;42.690;23.356;2022-12-08T12:59:21;20.05;;;10.35;;
36391;SDS011;22639;42.690;23.356;2022-12-08T13:01:53;16.13;;;10.88;;
36391;SDS011;22639;42.690;23.356;2022-12-08T13:04:27;18.23;;;12.93;;
36391;SDS011;22639;42.690;23.356;2022-12-08T13:06:53;23.83;;;13.98;;
36391;SDS011;22639;42.690;23.356;2022-12-08T13:09:20;28.63;;;15.87;;
36391;SDS011;22639;42.690;23.356;2022-12-08T13:11:47;24.47;;;14.53;;
36391;SDS011;22639;42.690;23.356;2022-12-08T13:14:25;24.77;;;16.80;;
36391;SDS011;22639;42.690;23.356;2022-12-08T13:16:51;30.40;;;18.67;;
36391;SDS011;22639;42.690;23.356;2022-12-08T13:19:19;27.33;;;15.63;;
36391;SDS011;22639;42.690;23.356;2022-12-08T13:21:45;26.50;;;15.30;;
36391;SDS011;22639;42.690;23.356;2022-12-08T13:29:30;19.87;;;11.57;;
36391;SDS011;22639;42.690;23.356;2022-12-08T13:32:02;18.17;;;10.33;;
36391;SDS011;22639;42.690;23.356;2022-12-08T13:34:41;14.37;;;9.40;;
36391;SDS011;22639;42.690;23.356;2022-12-08T13:39:54;15.77;;;10.20;;
36391;SDS011;22639;42.690;23.356;2022-12-08T13:45:04;13.30;;;9.40;;
36391;SDS011;22639;42.690;23.356;2022-12-08T13:47:43;18.93;;;9.73;;
36391;SDS011;22639;42.690;23.356;2022-12-08T13:50:13;14.00;;;9.50;;
36391;SDS011;22639;42.690;23.356;2022-12-08T13:55:44;18.50;;;12.07;;
36391;SDS011;22639;42.690;23.356;2022-12-08T14:00:56;20.20;;;11.93;;
36391;SDS011;22639;42.690;23.356;2022-12-08T14:03:23;17.00;;;10.30;;
36391;SDS011;22639;42.690;23.356;2022-12-08T14:05:48;23.00;;;14.13;;
36391;SDS011;22639;42.690;23.356;2022-12-08T14:08:19;16.73;;;10.57;;
36391;SDS011;22639;42.690;23.356;2022-12-08T14:10:50;19.90;;;12.27;;
36391;SDS011;22639;42.690;23.356;2022-12-08T14:13:17;21.77;;;11.80;;
36391;SDS011;22639;42.690;23.356;2022-12-08T14:15:42;20.63;;;11.27;;
36391;SDS011;22639;42.690;23.356;2022-12-08T14:18:20;22.17;;;13.57;;
36391;SDS011;22639;42.690;23.356;2022-12-08T14:20:46;20.80;;;12.83;;
36391;SDS011;22639;42.690;23.356;2022-12-08T14:23:22;24.07;;;14.27;;
36391;SDS011;22639;42.690;23.356;2022-12-08T14:25:47;28.17;;;17.73;;
36391;SDS011;22639;42.690;23.356;2022-12-08T14:28:14;27.43;;;17.03;;
36391;SDS011;22639;42.690;23.356;2022-12-08T14:30:39;29.70;;;19.73;;
36391;SDS011;22639;42.690;23.356;2022-12-08T14:33:04;31.80;;;20.67;;
36391;SDS011;22639;42.690;23.356;2022-12-08T14:35:36;42.90;;;27.77;;
36391;SDS011;22639;42.690;23.356;2022-12-08T14:45:29;43.57;;;22.97;;
36391;SDS011;22639;42.690;23.356;2022-12-08T14:47:54;40.80;;;26.20;;
36391;SDS011;22639;42.690;23.356;2022-12-08T14:50:41;38.53;;;23.70;;
36391;SDS011;22639;42.690;23.356;2022-12-08T14:53:14;46.77;;;25.00;;
36391;SDS011;22639;42.690;23.356;2022-12-08T14:55:41;41.57;;;26.03;;
36391;SDS011;22639;42.690;23.356;2022-12-08T14:58:13;39.77;;;24.37;;
36391;SDS011;22639;42.690;23.356;2022-12-08T15:00:43;46.40;;;25.67;;
36391;SDS011;22639;42.690;23.356;2022-12-08T15:03:09;40.73;;;24.10;;
36391;SDS011;22639;42.690;23.356;2022-12-08T15:05:36;40.33;;;25.00;;
36391;SDS011;22639;42.690;23.356;2022-12-08T15:08:03;39.83;;;21.60;;
36391;SDS011;22639;42.690;23.356;2022-12-08T15:10:29;40.60;;;23.47;;
36391;SDS011;22639;42.690;23.356;2022-12-08T15:15:27;35.23;;;23.60;;
36391;SDS011;22639;42.690;23.356;2022-12-08T15:17:57;36.87;;;22.87;;
36391;SDS011;22639;42.690;23.356;2022-12-08T15:20:44;33.37;;;21.70;;
36391;SDS011;22639;42.690;23.356;2022-12-08T15:25:51;32.93;;;21.53;;
36391;SDS011;22639;42.690;23.356;2022-12-08T15:28:18;38.73;;;20.57;;
36391;SDS011;22639;42.690;23.356;2022-12-08T15:30:44;36.87;;;21.03;;
36391;SDS011;22639;42.690;23.356;2022-12-08T15:33:09;34.33;;;21.27;;
36391;SDS011;22639;42.690;23.356;2022-12-08T15:35:36;40.50;;;22.67;;
36391;SDS011;22639;42.690;23.356;2022-12-08T15:38:01;38.83;;;21.70;;
36391;SDS011;22639;42.690;23.356;2022-12-08T15:40:26;34.37;;;21.00;;
36391;SDS011;22639;42.690;23.356;2022-12-08T15:42:52;39.60;;;23.57;;
36391;SDS011;22639;42.690;23.356;2022-12-08T15:45:17;43.20;;;26.57;;
36391;SDS011;22639;42.690;23.356;2022-12-08T15:47:43;47.70;;;30.17;;
36391;SDS011;22639;42.690;23.356;2022-12-08T15:50:15;49.50;;;32.90;;